createdAt,value
2018-04-29T00:02:12.462Z,2.67
2018-04-29T00:04:42.262Z,2.40
2018-04-29T00:07:11.150Z,2.33
2018-04-29T00:09:39.937Z,3.00
2018-04-29T00:12:08.831Z,2.93
2018-04-29T00:14:37.626Z,2.57
2018-04-29T00:17:06.464Z,2.80
2018-04-29T00:19:35.560Z,2.27
2018-04-29T00:22:04.330Z,2.43
2018-04-29T00:24:33.179Z,2.77
2018-04-29T00:27:02.362Z,2.53
2018-04-29T00:29:31.178Z,2.50
2018-04-29T00:31:59.989Z,2.60
2018-04-29T00:34:28.854Z,2.37
2018-04-29T00:36:57.699Z,2.40
2018-04-29T00:39:26.486Z,2.90
2018-04-29T00:41:55.315Z,2.80
2018-04-29T00:44:24.417Z,2.67
2018-04-29T00:46:53.302Z,2.60
2018-04-29T00:49:22.090Z,2.60
2018-04-29T00:51:56.717Z,2.87
2018-04-29T00:54:25.924Z,2.70
2018-04-29T00:56:54.717Z,2.77
2018-04-29T00:59:23.502Z,2.50
2018-04-29T01:01:53.309Z,2.67
2018-04-29T01:04:22.202Z,2.40
2018-04-29T01:06:51.004Z,2.40
2018-04-29T01:09:21.927Z,2.50
2018-04-29T01:11:50.714Z,2.77
2018-04-29T01:14:19.511Z,2.63
2018-04-29T01:16:48.341Z,2.30
2018-04-29T01:19:17.181Z,2.60
2018-04-29T01:21:46.003Z,2.73
2018-04-29T01:24:14.827Z,2.90
2018-04-29T01:26:43.620Z,3.23
2018-04-29T01:29:13.022Z,2.50
2018-04-29T01:31:41.857Z,2.67
2018-04-29T01:34:10.738Z,2.47
2018-04-29T01:36:39.525Z,3.20
2018-04-29T01:39:08.633Z,2.50
2018-04-29T01:41:37.426Z,2.83
2018-04-29T01:44:06.218Z,2.50
2018-04-29T01:46:35.847Z,2.27
2018-04-29T01:49:04.699Z,2.50
2018-04-29T01:51:33.863Z,2.53
2018-04-29T01:54:02.693Z,2.40
2018-04-29T01:56:31.575Z,2.33
2018-04-29T01:59:00.474Z,2.30
2018-04-29T02:01:29.273Z,2.23
2018-04-29T02:03:58.053Z,2.87
2018-04-29T02:06:26.901Z,2.00
2018-04-29T02:08:55.699Z,2.47
2018-04-29T02:11:24.501Z,2.80
2018-04-29T02:13:53.339Z,2.30
2018-04-29T02:16:22.201Z,2.50
2018-04-29T02:18:51.002Z,2.40
2018-04-29T02:21:20.277Z,2.33
2018-04-29T02:23:49.062Z,2.50
2018-04-29T02:26:17.856Z,2.90
2018-04-29T02:28:46.745Z,2.40
2018-04-29T02:31:16.638Z,2.10
2018-04-29T02:33:45.433Z,2.40
2018-04-29T02:36:14.257Z,2.17
2018-04-29T02:38:43.049Z,2.47
2018-04-29T02:41:11.847Z,2.57
2018-04-29T02:43:40.690Z,2.43
2018-04-29T02:46:09.503Z,2.63
2018-04-29T02:48:38.293Z,2.83
2018-04-29T02:51:07.125Z,2.30
2018-04-29T02:53:35.923Z,2.23
2018-04-29T02:56:04.721Z,2.40
2018-04-29T02:58:34.058Z,2.37
2018-04-29T03:01:02.856Z,2.97
2018-04-29T03:03:31.651Z,2.43
2018-04-29T03:06:00.734Z,2.13
2018-04-29T03:08:30.852Z,2.20
2018-04-29T03:10:59.642Z,2.30
2018-04-29T03:13:28.479Z,2.37
2018-04-29T03:15:57.257Z,2.23
2018-04-29T03:18:26.112Z,2.17
2018-04-29T03:20:55.205Z,2.93
2018-04-29T03:23:24.003Z,2.77
2018-04-29T03:25:52.808Z,2.00
2018-04-29T03:28:21.634Z,2.57
2018-04-29T03:30:50.475Z,2.47
2018-04-29T03:33:19.974Z,2.50
2018-04-29T03:35:48.776Z,2.30
2018-04-29T03:38:17.558Z,2.63
2018-04-29T03:40:46.395Z,2.00
2018-04-29T03:43:15.175Z,3.27
2018-04-29T03:45:44.027Z,3.97
2018-04-29T03:48:12.864Z,4.40
2018-04-29T03:50:41.654Z,4.23
2018-04-29T03:53:10.442Z,4.33
2018-04-29T03:55:39.478Z,4.43
2018-04-29T03:58:14.096Z,3.50
2018-04-29T04:00:49.477Z,3.90
2018-04-29T04:03:24.189Z,4.17
2018-04-29T04:05:53.071Z,4.43
2018-04-29T04:08:21.871Z,4.20
2018-04-29T04:10:50.673Z,4.03
2018-04-29T04:13:19.545Z,4.63
2018-04-29T04:15:48.434Z,4.40
2018-04-29T04:18:17.930Z,3.90
2018-04-29T04:20:46.830Z,3.70
2018-04-29T04:23:15.624Z,3.80
2018-04-29T04:25:44.506Z,3.43
2018-04-29T04:28:13.411Z,2.90
2018-04-29T04:30:42.206Z,2.77
2018-04-29T04:33:11.058Z,2.87
2018-04-29T04:35:40.588Z,3.80
2018-04-29T04:38:09.479Z,3.70
2018-04-29T04:40:38.337Z,3.60
2018-04-29T04:43:07.118Z,4.07
2018-04-29T04:45:35.946Z,5.00
2018-04-29T04:48:04.838Z,4.67
2018-04-29T04:50:33.628Z,5.27
2018-04-29T04:53:02.418Z,5.07
2018-04-29T04:55:31.420Z,4.60
2018-04-29T04:58:00.223Z,4.40
2018-04-29T05:00:29.009Z,4.87
2018-04-29T05:02:57.827Z,6.07
2018-04-29T05:05:26.671Z,4.90
2018-04-29T05:07:56.577Z,6.33
2018-04-29T05:10:25.370Z,7.50
2018-04-29T05:12:54.166Z,7.60
2018-04-29T05:15:23.014Z,7.10
2018-04-29T05:17:52.201Z,7.93
2018-04-29T05:20:21.125Z,8.20
2018-04-29T05:22:50.284Z,6.83
2018-04-29T05:25:19.589Z,7.63
2018-04-29T05:27:48.625Z,7.57
2018-04-29T05:30:17.665Z,6.63
2018-04-29T05:32:46.509Z,8.53
2018-04-29T05:35:15.937Z,8.90
2018-04-29T05:37:50.926Z,8.27
2018-04-29T05:40:20.267Z,7.93
2018-04-29T05:42:49.063Z,7.27
2018-04-29T05:45:17.866Z,7.13
2018-04-29T05:47:46.698Z,6.60
2018-04-29T05:50:15.514Z,6.73
2018-04-29T05:52:44.317Z,7.07
2018-04-29T05:55:13.178Z,9.23
2018-04-29T05:57:41.981Z,6.90
2018-04-29T06:00:10.874Z,6.83
2018-04-29T06:02:40.997Z,7.50
2018-04-29T06:05:09.789Z,6.10
2018-04-29T06:07:38.630Z,6.13
2018-04-29T06:10:07.465Z,5.90
2018-04-29T06:12:36.253Z,6.00
2018-04-29T06:15:05.140Z,6.87
2018-04-29T06:17:33.938Z,7.10
2018-04-29T06:20:02.747Z,6.07
2018-04-29T06:22:31.564Z,7.13
2018-04-29T06:25:00.394Z,5.73
2018-04-29T06:27:29.246Z,6.73
2018-04-29T06:29:58.073Z,6.77
2018-04-29T06:32:26.869Z,6.53
2018-04-29T06:34:55.774Z,6.10
2018-04-29T06:37:24.579Z,6.23
2018-04-29T06:39:53.650Z,5.90
2018-04-29T06:42:23.458Z,6.00
2018-04-29T06:44:52.263Z,6.10
2018-04-29T06:47:21.047Z,5.87
2018-04-29T06:49:49.929Z,5.70
2018-04-29T06:52:18.717Z,6.23
2018-04-29T06:54:47.527Z,6.17
2018-04-29T06:57:16.314Z,6.00
2018-04-29T06:59:47.951Z,5.50
2018-04-29T07:02:16.755Z,6.03
2018-04-29T07:04:45.537Z,6.30
2018-04-29T07:07:14.406Z,6.37
2018-04-29T07:09:44.131Z,6.80
2018-04-29T07:12:12.930Z,6.77
2018-04-29T07:14:41.924Z,7.27
2018-04-29T07:17:10.718Z,8.07
2018-04-29T07:19:39.606Z,7.97
2018-04-29T07:22:08.608Z,7.20
2018-04-29T07:24:37.401Z,7.20
2018-04-29T07:27:06.193Z,7.03
2018-04-29T07:29:35.105Z,6.93
2018-04-29T07:32:03.950Z,6.37
2018-04-29T07:34:32.796Z,7.40
2018-04-29T07:37:01.617Z,6.60
2018-04-29T07:39:30.517Z,7.80
2018-04-29T07:42:00.357Z,6.50
2018-04-29T07:44:29.146Z,8.23
2018-04-29T07:46:58.015Z,6.40
2018-04-29T07:49:26.862Z,5.07
2018-04-29T07:51:55.668Z,5.53
2018-04-29T07:54:24.455Z,7.03
2018-04-29T07:56:53.289Z,6.23
2018-04-29T07:59:22.085Z,7.47
2018-04-29T08:01:50.895Z,7.53
2018-04-29T08:04:20.552Z,8.33
2018-04-29T08:06:49.353Z,6.90
2018-04-29T08:09:18.230Z,7.73
2018-04-29T08:11:47.082Z,7.27
2018-04-29T08:14:15.886Z,7.97
2018-04-29T08:16:44.714Z,6.73
2018-04-29T08:19:13.713Z,5.90
2018-04-29T08:21:42.497Z,7.00
2018-04-29T08:24:11.319Z,6.17
2018-04-29T08:26:40.168Z,5.30
2018-04-29T08:29:08.967Z,4.50
2018-04-29T08:31:37.765Z,4.37
2018-04-29T08:34:06.589Z,4.80
2018-04-29T08:36:35.387Z,5.10
2018-04-29T08:39:04.256Z,4.50
2018-04-29T08:41:33.066Z,4.33
2018-04-29T08:44:02.367Z,4.50
2018-04-29T08:46:31.183Z,4.70
2018-04-29T08:49:00.094Z,4.10
2018-04-29T08:51:28.950Z,3.87
2018-04-29T08:53:57.746Z,4.07
2018-04-29T08:56:26.562Z,3.80
2018-04-29T08:58:55.542Z,3.20
2018-04-29T09:01:24.333Z,3.83
2018-04-29T09:03:53.201Z,3.17
2018-04-29T09:06:21.974Z,3.53
2018-04-29T09:08:59.605Z,3.13
2018-04-29T09:11:28.405Z,3.20
2018-04-29T09:13:57.248Z,2.80
2018-04-29T09:16:26.042Z,3.40
2018-04-29T09:18:54.876Z,3.17
2018-04-29T09:21:23.694Z,2.80
2018-04-29T09:23:52.499Z,3.57
2018-04-29T09:26:21.950Z,3.00
2018-04-29T09:28:50.745Z,2.70
2018-04-29T09:31:19.629Z,2.80
2018-04-29T09:33:48.606Z,2.80
2018-04-29T09:36:17.403Z,2.90
2018-04-29T09:38:46.250Z,2.90
2018-04-29T09:41:15.082Z,2.60
2018-04-29T09:43:43.912Z,2.63
2018-04-29T09:46:13.700Z,2.63
2018-04-29T09:48:42.507Z,2.43
2018-04-29T09:51:11.282Z,2.80
2018-04-29T09:53:40.130Z,2.30
2018-04-29T09:56:08.917Z,2.73
2018-04-29T09:58:37.729Z,2.77
2018-04-29T10:01:13.137Z,2.90
2018-04-29T10:03:41.903Z,2.50
2018-04-29T10:06:10.718Z,2.57
2018-04-29T10:08:39.534Z,2.40
2018-04-29T10:11:08.329Z,2.67
2018-04-29T10:13:37.178Z,2.60
2018-04-29T10:16:05.961Z,2.37
2018-04-29T10:18:34.766Z,2.30
2018-04-29T10:21:03.742Z,2.03
2018-04-29T10:23:32.598Z,1.77
2018-04-29T10:26:01.383Z,2.27
2018-04-29T10:28:30.269Z,2.50
2018-04-29T10:30:59.059Z,2.07
2018-04-29T10:33:27.875Z,2.33
2018-04-29T10:35:57.147Z,2.27
2018-04-29T10:38:25.947Z,2.27
2018-04-29T10:40:54.738Z,2.47
2018-04-29T10:43:23.628Z,2.50
2018-04-29T10:45:52.420Z,2.00
2018-04-29T10:48:21.694Z,2.20
2018-04-29T10:50:50.816Z,2.50
2018-04-29T10:53:19.702Z,2.47
2018-04-29T10:55:48.533Z,2.30
2018-04-29T10:58:17.939Z,2.50
2018-04-29T11:00:46.743Z,1.90
2018-04-29T11:03:15.571Z,2.60
2018-04-29T11:05:44.660Z,2.77
2018-04-29T11:08:14.982Z,3.00
2018-04-29T11:10:43.778Z,2.53
2018-04-29T11:13:12.884Z,2.13
2018-04-29T11:15:41.702Z,2.30
2018-04-29T11:18:10.500Z,2.30
2018-04-29T11:20:39.801Z,2.50
2018-04-29T11:23:08.615Z,2.78
2018-04-29T11:25:37.419Z,2.17
2018-04-29T11:28:06.523Z,2.35
2018-04-29T11:30:35.326Z,2.50
2018-04-29T11:33:04.122Z,3.28
2018-04-29T11:35:32.962Z,2.75
2018-04-29T11:38:01.767Z,2.35
2018-04-29T11:40:30.759Z,2.35
2018-04-29T11:42:59.467Z,3.40
2018-04-29T11:45:28.363Z,3.72
2018-04-29T11:47:57.230Z,2.22
2018-04-29T11:50:26.861Z,2.50
2018-04-29T11:52:55.658Z,2.80
2018-04-29T11:55:24.536Z,2.72
2018-04-29T11:57:53.427Z,2.20
2018-04-29T12:00:22.335Z,2.22
2018-04-29T12:02:52.441Z,2.62
2018-04-29T12:05:21.227Z,2.55
2018-04-29T12:07:50.116Z,2.10
2018-04-29T12:10:18.926Z,2.55
2018-04-29T12:12:47.743Z,2.70
2018-04-29T12:15:16.568Z,2.10
2018-04-29T12:17:45.376Z,2.40
2018-04-29T12:20:14.669Z,2.25
2018-04-29T12:22:43.559Z,2.50
2018-04-29T12:25:12.451Z,2.53
2018-04-29T12:27:41.289Z,2.47
2018-04-29T12:30:10.107Z,2.85
2018-04-29T12:32:38.915Z,2.67
2018-04-29T12:35:07.749Z,3.05
2018-04-29T12:37:36.601Z,2.53
2018-04-29T12:40:05.409Z,2.50
2018-04-29T12:42:35.198Z,2.70
2018-04-29T12:45:03.996Z,2.85
2018-04-29T12:47:32.790Z,3.00
2018-04-29T12:50:01.671Z,2.83
2018-04-29T12:52:31.139Z,2.75
2018-04-29T12:54:59.997Z,2.50
2018-04-29T12:57:28.785Z,3.00
2018-04-29T12:59:58.700Z,3.30
2018-04-29T13:02:27.575Z,3.87
2018-04-29T13:04:56.449Z,3.65
2018-04-29T13:07:25.320Z,3.90
2018-04-29T13:09:55.158Z,5.47
2018-04-29T13:12:23.963Z,5.43
2018-04-29T13:14:52.891Z,5.40
2018-04-29T13:17:21.731Z,4.15
2018-04-29T13:19:50.547Z,5.65
2018-04-29T13:22:19.410Z,4.70
2018-04-29T13:24:48.211Z,5.55
2018-04-29T13:27:17.013Z,4.82
2018-04-29T13:29:45.865Z,4.90
2018-04-29T13:32:14.686Z,4.93
2018-04-29T13:34:43.478Z,5.32
2018-04-29T13:37:12.451Z,5.20
2018-04-29T13:39:41.247Z,4.20
2018-04-29T13:42:10.162Z,4.37
2018-04-29T13:44:40.570Z,4.12
2018-04-29T13:47:09.359Z,4.00
2018-04-29T13:49:38.159Z,3.53
2018-04-29T13:52:06.989Z,3.33
2018-04-29T13:54:36.481Z,3.03
2018-04-29T13:57:05.418Z,3.03
2018-04-29T13:59:34.223Z,3.33
2018-04-29T14:02:03.122Z,3.12
2018-04-29T14:04:31.967Z,2.80
2018-04-29T14:07:00.754Z,2.22
2018-04-29T14:09:29.591Z,2.58
2018-04-29T14:12:01.608Z,2.50
2018-04-29T14:14:30.426Z,2.65
2018-04-29T14:16:59.336Z,2.50
2018-04-29T14:19:28.121Z,2.40
2018-04-29T14:21:56.918Z,2.60
2018-04-29T14:24:25.775Z,2.12
2018-04-29T14:26:54.558Z,2.70
2018-04-29T14:29:23.351Z,2.30
2018-04-29T14:31:52.187Z,2.40
2018-04-29T14:34:21.315Z,2.47
2018-04-29T14:36:50.097Z,2.30
2018-04-29T14:39:19.635Z,2.47
2018-04-29T14:41:48.434Z,2.40
2018-04-29T14:44:17.269Z,3.75
2018-04-29T14:46:46.061Z,2.42
2018-04-29T14:49:14.901Z,2.50
2018-04-29T14:51:43.731Z,2.62
2018-04-29T14:54:12.525Z,2.83
2018-04-29T14:56:42.290Z,3.10
2018-04-29T14:59:11.128Z,2.17
2018-04-29T15:01:39.936Z,2.50
2018-04-29T15:04:08.778Z,2.30
2018-04-29T15:06:37.646Z,2.80
2018-04-29T15:09:06.437Z,3.75
2018-04-29T15:11:35.322Z,3.08
2018-04-29T15:14:04.125Z,2.78
2018-04-29T15:16:32.926Z,2.67
2018-04-29T15:19:01.757Z,2.37
2018-04-29T15:21:30.548Z,2.78
2018-04-29T15:23:59.389Z,2.40
2018-04-29T15:26:28.198Z,2.50
2018-04-29T15:28:57.054Z,2.50
2018-04-29T15:31:25.958Z,2.22
2018-04-29T15:33:55.755Z,2.17
2018-04-29T15:36:24.547Z,2.42
2018-04-29T15:38:53.435Z,2.85
2018-04-29T15:41:22.270Z,3.65
2018-04-29T15:43:51.068Z,3.55
2018-04-29T15:46:19.904Z,3.90
2018-04-29T15:48:48.795Z,4.60
2018-04-29T15:51:18.103Z,4.37
2018-04-29T15:53:46.989Z,4.10
2018-04-29T15:56:15.859Z,4.68
2018-04-29T15:58:45.146Z,4.62
2018-04-29T16:01:13.980Z,4.82
2018-04-29T16:03:43.267Z,4.35
2018-04-29T16:06:11.978Z,4.18
2018-04-29T16:08:41.879Z,5.60
2018-04-29T16:11:10.722Z,4.78
2018-04-29T16:13:39.514Z,5.40
2018-04-29T16:16:08.338Z,5.40
2018-04-29T16:18:37.442Z,4.70
2018-04-29T16:21:06.322Z,3.90
2018-04-29T16:23:35.127Z,4.47
2018-04-29T16:26:04.529Z,5.78
2018-04-29T16:28:33.326Z,5.10
2018-04-29T16:31:02.126Z,4.93
2018-04-29T16:33:31.189Z,5.40
2018-04-29T16:35:59.994Z,5.00
2018-04-29T16:38:28.794Z,4.40
2018-04-29T16:40:57.648Z,4.90
2018-04-29T16:43:26.442Z,4.25
2018-04-29T16:45:55.234Z,4.72
2018-04-29T16:48:24.378Z,4.95
2018-04-29T16:50:53.238Z,4.68
2018-04-29T16:53:22.033Z,4.62
2018-04-29T16:55:50.856Z,4.50
2018-04-29T16:58:19.642Z,5.00
2018-04-29T17:00:49.271Z,4.40
2018-04-29T17:03:18.093Z,4.03
2018-04-29T17:05:46.911Z,3.85
2018-04-29T17:08:16.076Z,4.32
2018-04-29T17:10:44.966Z,4.00
2018-04-29T17:13:13.771Z,4.10
2018-04-29T17:15:42.590Z,4.85
2018-04-29T17:18:11.461Z,4.32
2018-04-29T17:20:40.302Z,4.47
2018-04-29T17:23:09.164Z,4.75
2018-04-29T17:25:38.985Z,4.12
2018-04-29T17:28:07.830Z,4.43
2018-04-29T17:30:36.623Z,4.72
2018-04-29T17:33:05.410Z,4.20
2018-04-29T17:35:34.602Z,3.87
2018-04-29T17:38:03.507Z,3.90
2018-04-29T17:40:32.309Z,3.67
2018-04-29T17:43:02.204Z,3.97
2018-04-29T17:45:31.147Z,4.25
2018-04-29T17:48:00.029Z,4.55
2018-04-29T17:50:29.441Z,4.20
2018-04-29T17:52:58.305Z,4.15
2018-04-29T17:55:27.222Z,3.90
2018-04-29T17:57:56.367Z,3.72
2018-04-29T18:00:25.251Z,4.03
2018-04-29T18:02:54.623Z,3.97
2018-04-29T18:05:23.501Z,3.80
2018-04-29T18:07:53.691Z,4.20
2018-04-29T18:10:22.492Z,4.22
2018-04-29T18:12:51.553Z,4.20
2018-04-29T18:15:20.351Z,4.22
2018-04-29T18:17:49.143Z,4.30
2018-04-29T18:20:18.028Z,4.53
2018-04-29T18:22:46.843Z,4.45
2018-04-29T18:25:16.320Z,4.15
2018-04-29T18:27:45.234Z,4.70
2018-04-29T18:30:13.999Z,4.20
2018-04-29T18:32:42.842Z,4.55
2018-04-29T18:35:11.638Z,3.83
2018-04-29T18:37:40.503Z,4.32
2018-04-29T18:40:09.307Z,4.40
2018-04-29T18:42:38.118Z,4.83
2018-04-29T18:45:07.227Z,4.37
2018-04-29T18:47:36.019Z,4.37
2018-04-29T18:50:04.936Z,4.37
2018-04-29T18:52:33.735Z,4.80
2018-04-29T18:55:02.602Z,4.73
2018-04-29T18:57:31.602Z,4.70
2018-04-29T19:00:00.411Z,4.50
2018-04-29T19:02:29.192Z,4.50
2018-04-29T19:04:58.731Z,4.80
2018-04-29T19:07:27.467Z,4.63
2018-04-29T19:09:56.258Z,4.87
2018-04-29T19:12:25.138Z,4.23
2018-04-29T19:14:54.039Z,4.80
2018-04-29T19:17:22.839Z,4.43
2018-04-29T19:19:52.648Z,5.00
2018-04-29T19:22:21.434Z,5.30
2018-04-29T19:24:50.231Z,5.10
2018-04-29T19:27:19.107Z,4.80
2018-04-29T19:29:48.002Z,5.07
2018-04-29T19:32:16.803Z,4.67
2018-04-29T19:34:45.744Z,4.97
2018-04-29T19:37:14.575Z,4.43
2018-04-29T19:39:44.002Z,5.03
2018-04-29T19:42:12.815Z,5.10
2018-04-29T19:44:41.610Z,4.80
2018-04-29T19:47:10.660Z,4.80
2018-04-29T19:49:39.596Z,5.00
2018-04-29T19:52:08.397Z,4.80
2018-04-29T19:54:37.234Z,4.93
2018-04-29T19:57:06.036Z,5.20
2018-04-29T19:59:34.842Z,5.30
2018-04-29T20:02:04.020Z,5.40
2018-04-29T20:04:32.813Z,5.77
2018-04-29T20:07:02.398Z,5.13
2018-04-29T20:09:31.267Z,4.90
2018-04-29T20:12:00.070Z,5.20
2018-04-29T20:14:28.871Z,5.70
2018-04-29T20:16:58.623Z,5.27
2018-04-29T20:19:27.464Z,5.33
2018-04-29T20:21:56.258Z,5.40
2018-04-29T20:24:25.100Z,5.40
2018-04-29T20:26:53.935Z,4.83
2018-04-29T20:29:22.776Z,6.17
2018-04-29T20:31:51.610Z,5.33
2018-04-29T20:34:20.422Z,5.47
2018-04-29T20:36:50.039Z,5.50
2018-04-29T20:39:18.826Z,5.00
2018-04-29T20:41:47.655Z,5.30
2018-04-29T20:44:16.514Z,5.10
2018-04-29T20:46:45.334Z,4.70
2018-04-29T20:49:14.142Z,5.50
2018-04-29T20:51:43.254Z,5.70
2018-04-29T20:54:12.066Z,5.17
2018-04-29T20:56:40.866Z,4.97
2018-04-29T20:59:09.738Z,4.77
2018-04-29T21:01:38.532Z,5.00
2018-04-29T21:04:07.322Z,4.87
2018-04-29T21:06:36.198Z,5.30
2018-04-29T21:09:06.559Z,5.53
2018-04-29T21:11:36.073Z,5.00
2018-04-29T21:14:04.878Z,5.13
2018-04-29T21:16:33.682Z,4.53
2018-04-29T21:19:02.801Z,5.53
2018-04-29T21:21:31.590Z,4.83
2018-04-29T21:24:00.386Z,5.30
2018-04-29T21:26:29.884Z,5.47
2018-04-29T21:28:58.673Z,5.30
2018-04-29T21:31:27.498Z,4.57
2018-04-29T21:33:56.342Z,5.57
2018-04-29T21:36:25.256Z,5.77
2018-04-29T21:38:54.063Z,5.07
2018-04-29T21:41:22.891Z,5.40
2018-04-29T21:43:52.607Z,5.10
2018-04-29T21:46:21.424Z,5.27
2018-04-29T21:48:50.405Z,4.80
2018-04-29T21:51:19.207Z,4.77
2018-04-29T21:53:48.047Z,4.90
2018-04-29T21:56:16.885Z,5.13
2018-04-29T21:58:45.651Z,5.87
2018-04-29T22:01:14.705Z,6.00
2018-04-29T22:03:43.502Z,5.90
2018-04-29T22:06:12.307Z,5.70
2018-04-29T22:08:41.131Z,4.07
2018-04-29T22:11:10.913Z,3.77
2018-04-29T22:13:39.740Z,5.07
2018-04-29T22:16:08.621Z,4.37
2018-04-29T22:18:38.049Z,5.23
2018-04-29T22:21:06.924Z,5.10
2018-04-29T22:23:35.728Z,4.47
2018-04-29T22:26:04.576Z,4.20
2018-04-29T22:28:33.388Z,3.90
2018-04-29T22:31:02.181Z,3.60
2018-04-29T22:33:31.178Z,3.03
2018-04-29T22:35:59.985Z,3.10
2018-04-29T22:38:28.857Z,2.70
2018-04-29T22:40:57.666Z,2.70
2018-04-29T22:43:26.469Z,2.70
2018-04-29T22:45:55.291Z,2.70
2018-04-29T22:48:24.107Z,3.20
2018-04-29T22:50:53.254Z,2.70
2018-04-29T22:53:22.055Z,2.60
2018-04-29T22:55:50.885Z,2.90
2018-04-29T22:58:19.970Z,2.80
2018-04-29T23:00:48.769Z,3.30
2018-04-29T23:03:17.556Z,3.30
2018-04-29T23:05:46.414Z,3.10
2018-04-29T23:08:16.898Z,3.13
2018-04-29T23:10:45.769Z,2.50
2018-04-29T23:13:14.774Z,2.20
2018-04-29T23:15:43.573Z,2.30
2018-04-29T23:18:12.376Z,2.13
2018-04-29T23:20:41.631Z,2.20
2018-04-29T23:23:10.434Z,1.80
2018-04-29T23:25:39.221Z,1.80
2018-04-29T23:28:08.034Z,1.67
2018-04-29T23:30:36.837Z,1.80
2018-04-29T23:33:05.695Z,1.30
2018-04-29T23:35:34.575Z,1.03
2018-04-29T23:38:03.376Z,1.10
2018-04-29T23:40:32.261Z,1.07
2018-04-29T23:43:01.154Z,1.10
2018-04-29T23:45:30.035Z,0.90
2018-04-29T23:47:58.870Z,1.20
2018-04-29T23:50:27.717Z,1.23
2018-04-29T23:52:56.602Z,1.17
2018-04-29T23:55:25.453Z,1.13
2018-04-29T23:57:54.235Z,1.10
